createdAt,value
2024-01-14T00:00:53.734Z,1.60
2024-01-14T00:03:21.112Z,1.60
2024-01-14T00:05:48.576Z,1.60
2024-01-14T00:08:16.137Z,1.70
2024-01-14T00:10:43.348Z,1.80
2024-01-14T00:13:10.635Z,1.90
2024-01-14T00:15:38.167Z,1.90
2024-01-14T00:18:05.836Z,2.00
2024-01-14T00:20:33.150Z,2.00
2024-01-14T00:23:00.378Z,2.00
2024-01-14T00:25:27.578Z,2.00
2024-01-14T00:27:54.791Z,1.90
2024-01-14T00:30:22.054Z,1.90
2024-01-14T00:32:49.572Z,1.90
2024-01-14T00:35:16.900Z,1.90
2024-01-14T00:37:44.196Z,1.80
2024-01-14T00:40:12.218Z,1.80
2024-01-14T00:42:39.573Z,1.80
2024-01-14T00:45:07.454Z,1.70
2024-01-14T00:47:35.754Z,1.70
2024-01-14T00:50:02.914Z,1.70
2024-01-14T00:52:30.254Z,1.70
2024-01-14T00:54:57.567Z,1.70
2024-01-14T00:57:24.876Z,1.70
2024-01-14T00:59:52.189Z,1.80
2024-01-14T01:02:19.702Z,1.90
2024-01-14T01:04:46.921Z,1.90
2024-01-14T01:07:14.234Z,1.90
2024-01-14T01:09:41.383Z,1.90
2024-01-14T01:12:08.581Z,1.80
2024-01-14T01:14:35.708Z,1.80
2024-01-14T01:17:02.979Z,1.90
2024-01-14T01:19:30.193Z,1.80
2024-01-14T01:21:57.528Z,1.90
2024-01-14T01:24:24.698Z,2.00
2024-01-14T01:26:52.852Z,1.90
2024-01-14T01:29:20.994Z,1.90
2024-01-14T01:31:51.431Z,1.90
2024-01-14T01:34:23.333Z,1.80
2024-01-14T01:36:50.799Z,1.80
2024-01-14T01:39:18.109Z,1.90
2024-01-14T01:41:45.310Z,1.80
2024-01-14T01:44:12.752Z,1.80
2024-01-14T01:46:40.284Z,1.90
2024-01-14T01:49:07.824Z,1.80
2024-01-14T01:51:35.366Z,1.90
2024-01-14T01:54:02.923Z,1.90
2024-01-14T01:56:31.186Z,1.80
2024-01-14T01:58:59.125Z,1.80
2024-01-14T02:01:26.567Z,1.80
2024-01-14T02:03:55.513Z,1.80
2024-01-14T02:06:23.707Z,1.80
2024-01-14T02:08:51.117Z,1.70
2024-01-14T02:11:18.471Z,1.70
2024-01-14T02:13:45.704Z,1.70
2024-01-14T02:16:13.500Z,1.70
2024-01-14T02:18:41.045Z,1.70
2024-01-14T02:21:11.860Z,1.70
2024-01-14T02:23:43.115Z,1.70
2024-01-14T02:26:10.473Z,1.70
2024-01-14T02:28:38.869Z,1.70
2024-01-14T02:31:07.467Z,1.70
2024-01-14T02:33:34.787Z,1.60
2024-01-14T02:36:02.255Z,1.60
2024-01-14T02:38:29.774Z,1.60
2024-01-14T02:40:56.983Z,1.60
2024-01-14T02:43:24.132Z,1.60
2024-01-14T02:45:51.376Z,1.70
2024-01-14T02:48:18.746Z,1.70
2024-01-14T02:50:46.178Z,1.80
2024-01-14T02:53:14.301Z,1.80
2024-01-14T02:55:41.614Z,1.80
2024-01-14T02:58:08.858Z,1.80
2024-01-14T03:00:36.159Z,1.80
2024-01-14T03:03:03.471Z,1.80
2024-01-14T03:05:30.858Z,1.80
2024-01-14T03:07:58.069Z,1.80
2024-01-14T03:10:25.314Z,1.80
2024-01-14T03:12:52.448Z,1.90
2024-01-14T03:15:19.783Z,2.00
2024-01-14T03:17:47.029Z,2.00
2024-01-14T03:20:14.403Z,2.00
2024-01-14T03:22:41.642Z,2.00
2024-01-14T03:25:09.314Z,2.00
2024-01-14T03:27:36.559Z,2.10
2024-01-14T03:30:04.297Z,2.10
2024-01-14T03:32:31.584Z,2.20
2024-01-14T03:34:58.970Z,2.30
2024-01-14T03:37:26.143Z,2.30
2024-01-14T03:39:54.426Z,2.40
2024-01-14T03:42:21.601Z,2.40
2024-01-14T03:44:48.971Z,2.40
2024-01-14T03:47:16.175Z,2.40
2024-01-14T03:49:43.631Z,2.40
2024-01-14T03:52:10.934Z,2.30
2024-01-14T03:54:38.226Z,2.30
2024-01-14T03:57:05.796Z,2.30
2024-01-14T03:59:33.174Z,2.30
2024-01-14T04:02:00.314Z,2.30
2024-01-14T04:04:27.714Z,2.20
2024-01-14T04:06:55.117Z,2.20
2024-01-14T04:09:22.540Z,2.10
2024-01-14T04:11:49.818Z,2.10
2024-01-14T04:14:17.179Z,2.10
2024-01-14T04:16:44.302Z,2.00
2024-01-14T04:19:11.545Z,2.00
2024-01-14T04:21:38.952Z,1.90
2024-01-14T04:24:06.553Z,1.90
2024-01-14T04:26:33.665Z,2.00
2024-01-14T04:29:01.079Z,1.90
2024-01-14T04:31:28.496Z,2.00
2024-01-14T04:33:58.123Z,2.00
2024-01-14T04:36:25.525Z,2.00
2024-01-14T04:38:52.758Z,2.10
2024-01-14T04:41:20.014Z,2.20
2024-01-14T04:43:47.536Z,2.30
2024-01-14T04:46:14.718Z,2.30
2024-01-14T04:48:42.370Z,2.40
2024-01-14T04:51:11.166Z,2.50
2024-01-14T04:53:38.457Z,2.50
2024-01-14T04:56:09.270Z,2.50
2024-01-14T04:58:36.651Z,2.60
2024-01-14T05:01:03.841Z,2.50
2024-01-14T05:03:31.399Z,2.50
2024-01-14T05:05:59.039Z,2.50
2024-01-14T05:08:26.424Z,2.50
2024-01-14T05:10:53.653Z,2.50
2024-01-14T05:13:20.928Z,2.50
2024-01-14T05:15:48.148Z,2.50
2024-01-14T05:18:15.510Z,2.50
2024-01-14T05:20:43.002Z,2.50
2024-01-14T05:23:10.274Z,2.50
2024-01-14T05:25:37.761Z,2.40
2024-01-14T05:28:05.273Z,2.50
2024-01-14T05:30:33.355Z,2.50
2024-01-14T05:33:00.806Z,2.50
2024-01-14T05:35:28.164Z,2.50
2024-01-14T05:37:55.464Z,2.60
2024-01-14T05:40:22.929Z,2.70
2024-01-14T05:42:50.284Z,2.70
2024-01-14T05:45:17.453Z,2.70
2024-01-14T05:47:44.889Z,2.70
2024-01-14T05:50:12.166Z,2.70
2024-01-14T05:52:39.465Z,2.70
2024-01-14T05:55:06.897Z,2.70
2024-01-14T05:57:34.257Z,2.70
2024-01-14T06:00:01.404Z,2.60
2024-01-14T06:02:34.098Z,2.60
2024-01-14T06:05:01.496Z,2.60
2024-01-14T06:07:28.743Z,2.70
2024-01-14T06:09:56.256Z,2.70
2024-01-14T06:12:23.568Z,2.70
2024-01-14T06:14:50.906Z,2.70
2024-01-14T06:17:18.057Z,2.70
2024-01-14T06:19:45.358Z,2.70
2024-01-14T06:22:13.936Z,2.80
2024-01-14T06:24:41.182Z,2.80
2024-01-14T06:27:08.407Z,2.80
2024-01-14T06:29:35.657Z,2.80
2024-01-14T06:32:02.896Z,2.80
2024-01-14T06:34:30.361Z,2.70
2024-01-14T06:36:57.623Z,2.70
2024-01-14T06:39:24.760Z,2.70
2024-01-14T06:41:53.236Z,2.70
2024-01-14T06:44:20.405Z,2.70
2024-01-14T06:46:47.770Z,2.80
2024-01-14T06:49:15.225Z,2.80
2024-01-14T06:51:44.106Z,2.80
2024-01-14T06:54:11.749Z,2.80
2024-01-14T06:56:42.084Z,2.80
2024-01-14T06:59:13.395Z,2.80
2024-01-14T07:01:40.678Z,2.70
2024-01-14T07:04:07.994Z,2.70
2024-01-14T07:06:35.318Z,2.70
2024-01-14T07:09:02.476Z,2.80
2024-01-14T07:11:29.772Z,2.80
2024-01-14T07:13:56.950Z,2.90
2024-01-14T07:16:24.214Z,3.00
2024-01-14T07:18:51.489Z,3.00
2024-01-14T07:21:22.421Z,3.10
2024-01-14T07:23:50.081Z,3.10
2024-01-14T07:26:23.470Z,3.10
2024-01-14T07:28:54.563Z,3.10
2024-01-14T07:31:23.103Z,3.10
2024-01-14T07:33:53.042Z,3.00
2024-01-14T07:36:21.265Z,3.00
2024-01-14T07:38:49.116Z,3.10
2024-01-14T07:41:17.102Z,3.00
2024-01-14T07:43:44.978Z,3.00
2024-01-14T07:46:12.836Z,3.00
2024-01-14T07:48:40.632Z,2.90
2024-01-14T07:51:08.123Z,3.00
2024-01-14T07:53:35.735Z,3.00
2024-01-14T07:56:04.811Z,3.00
2024-01-14T07:58:32.230Z,2.90
2024-01-14T08:01:02.379Z,2.90
2024-01-14T08:03:32.359Z,2.90
2024-01-14T08:06:01.652Z,2.90
2024-01-14T08:08:29.771Z,2.90
2024-01-14T08:10:57.069Z,2.90
2024-01-14T08:13:24.868Z,2.90
2024-01-14T08:15:58.153Z,3.00
2024-01-14T08:18:31.676Z,3.00
2024-01-14T08:21:00.045Z,3.10
2024-01-14T08:23:29.790Z,3.10
2024-01-14T08:25:58.143Z,3.20
2024-01-14T08:28:25.625Z,3.20
2024-01-14T08:30:53.048Z,3.20
2024-01-14T08:33:20.544Z,3.20
2024-01-14T08:35:47.671Z,3.20
2024-01-14T08:38:14.893Z,3.10
2024-01-14T08:40:42.137Z,3.10
2024-01-14T08:43:09.797Z,3.10
2024-01-14T08:45:37.039Z,3.10
2024-01-14T08:48:04.927Z,3.10
2024-01-14T08:50:32.541Z,3.10
2024-01-14T08:52:59.800Z,3.20
2024-01-14T08:55:27.005Z,3.20
2024-01-14T08:57:54.243Z,3.30
2024-01-14T09:00:21.827Z,3.30
2024-01-14T09:02:49.199Z,3.30
2024-01-14T09:05:17.587Z,3.30
2024-01-14T09:07:44.860Z,3.40
2024-01-14T09:10:12.548Z,3.50
2024-01-14T09:12:39.826Z,3.50
2024-01-14T09:15:07.774Z,3.60
2024-01-14T09:17:36.387Z,3.60
2024-01-14T09:20:06.314Z,3.70
2024-01-14T09:22:33.862Z,3.70
2024-01-14T09:25:01.058Z,3.80
2024-01-14T09:27:31.801Z,3.80
2024-01-14T09:30:00.242Z,3.90
2024-01-14T09:32:27.808Z,4.00
2024-01-14T09:34:55.888Z,4.10
2024-01-14T09:37:23.039Z,4.20
2024-01-14T09:39:50.368Z,4.30
2024-01-14T09:42:22.041Z,4.30
2024-01-14T09:44:52.426Z,4.40
2024-01-14T09:47:19.705Z,4.60
2024-01-14T09:49:47.182Z,4.60
2024-01-14T09:52:15.327Z,4.70
2024-01-14T09:54:42.732Z,4.80
2024-01-14T09:57:15.538Z,4.90
2024-01-14T09:59:44.728Z,4.90
2024-01-14T10:02:13.107Z,4.90
2024-01-14T10:04:41.625Z,4.90
2024-01-14T10:07:09.777Z,4.90
2024-01-14T10:09:39.981Z,4.90
2024-01-14T10:12:10.287Z,5.00
2024-01-14T10:14:38.857Z,5.00
2024-01-14T10:17:06.352Z,5.10
2024-01-14T10:19:34.002Z,5.10
2024-01-14T10:22:14.959Z,5.00
2024-01-14T10:24:50.125Z,5.00
2024-01-14T10:27:33.800Z,5.00
2024-01-14T10:30:10.334Z,5.10
2024-01-14T10:33:15.395Z,5.20
2024-01-14T10:35:26.620Z,5.30
2024-01-14T10:37:54.545Z,5.40
2024-01-14T10:40:23.696Z,5.40
2024-01-14T10:42:51.444Z,5.40
2024-01-14T10:45:18.948Z,5.40
2024-01-14T10:47:49.158Z,5.40
2024-01-14T10:50:19.636Z,5.50
2024-01-14T10:52:55.832Z,5.50
2024-01-14T10:55:41.971Z,5.40
2024-01-14T10:58:15.299Z,5.40
2024-01-14T11:00:48.006Z,5.40
2024-01-14T11:03:15.914Z,5.50
2024-01-14T11:05:43.422Z,5.50
2024-01-14T11:08:13.184Z,5.50
2024-01-14T11:10:41.109Z,5.60
2024-01-14T11:13:22.754Z,5.60
2024-01-14T11:16:00.569Z,5.60
2024-01-14T11:18:35.065Z,5.60
2024-01-14T11:21:26.573Z,5.70
2024-01-14T11:24:02.535Z,5.70
2024-01-14T11:26:29.983Z,5.80
2024-01-14T11:29:00.511Z,5.80
2024-01-14T11:31:49.137Z,5.90
2024-01-14T11:34:19.602Z,5.90
2024-01-14T11:36:50.486Z,6.00
2024-01-14T11:39:18.033Z,6.00
2024-01-14T11:41:45.951Z,6.00
2024-01-14T11:44:13.420Z,6.10
2024-01-14T11:46:47.387Z,6.10
2024-01-14T11:49:24.780Z,6.10
2024-01-14T11:51:57.636Z,6.10
2024-01-14T11:54:25.650Z,6.10
2024-01-14T11:56:53.853Z,6.20
2024-01-14T11:59:34.349Z,6.20
2024-01-14T12:02:11.967Z,6.20
2024-01-14T12:04:39.191Z,6.30
2024-01-14T12:07:06.558Z,6.30
2024-01-14T12:09:35.158Z,6.40
2024-01-14T12:12:05.796Z,6.40
2024-01-14T12:14:38.634Z,6.50
2024-01-14T12:17:09.124Z,6.60
2024-01-14T12:19:36.317Z,6.60
2024-01-14T12:22:04.141Z,6.70
2024-01-14T12:24:31.411Z,6.70
2024-01-14T12:27:00.638Z,6.80
2024-01-14T12:29:32.045Z,6.90
2024-01-14T12:31:59.871Z,6.80
2024-01-14T12:34:27.275Z,6.80
2024-01-14T12:36:55.486Z,6.90
2024-01-14T12:39:24.893Z,6.90
2024-01-14T12:41:54.948Z,6.90
2024-01-14T12:44:26.823Z,6.90
2024-01-14T12:46:59.434Z,7.00
2024-01-14T12:49:27.302Z,6.90
2024-01-14T12:51:57.599Z,7.00
2024-01-14T12:54:26.914Z,6.90
2024-01-14T12:57:01.531Z,6.90
2024-01-14T12:59:30.441Z,6.90
2024-01-14T13:01:57.713Z,6.90
2024-01-14T13:04:27.592Z,7.00
2024-01-14T13:06:58.722Z,7.00
2024-01-14T13:09:28.728Z,7.00
2024-01-14T13:11:56.533Z,6.90
2024-01-14T13:14:23.978Z,6.80
2024-01-14T13:16:54.462Z,6.80
2024-01-14T13:19:22.647Z,6.80
2024-01-14T13:21:50.258Z,6.80
2024-01-14T13:24:17.747Z,6.80
2024-01-14T13:26:45.166Z,6.80
2024-01-14T13:29:12.634Z,6.80
2024-01-14T13:31:41.644Z,6.90
2024-01-14T13:34:10.328Z,7.00
2024-01-14T13:36:37.853Z,7.00
2024-01-14T13:39:06.252Z,7.00
2024-01-14T13:41:34.313Z,7.10
2024-01-14T13:46:32.606Z,7.10
2024-01-14T13:48:59.890Z,7.20
2024-01-14T13:51:27.450Z,7.20
2024-01-14T13:54:03.433Z,7.30
2024-01-14T13:56:42.934Z,7.40
2024-01-14T13:59:12.008Z,7.40
2024-01-14T14:01:40.300Z,7.40
2024-01-14T14:04:09.959Z,7.50
2024-01-14T14:06:39.140Z,7.60
2024-01-14T14:09:09.003Z,7.70
2024-01-14T14:11:37.095Z,7.70
2024-01-14T14:14:05.214Z,7.70
2024-01-14T14:16:40.058Z,7.80
2024-01-14T14:19:12.569Z,7.80
2024-01-14T14:21:53.794Z,7.80
2024-01-14T14:24:28.164Z,7.80
2024-01-14T14:26:55.702Z,7.80
2024-01-14T14:29:25.518Z,7.80
2024-01-14T14:31:54.977Z,7.80
2024-01-14T14:34:22.978Z,7.80
2024-01-14T14:36:50.768Z,7.80
2024-01-14T14:39:20.186Z,7.80
2024-01-14T14:41:48.699Z,7.80
2024-01-14T14:44:16.623Z,7.80
2024-01-14T14:46:44.173Z,7.80
2024-01-14T14:49:12.234Z,7.80
2024-01-14T14:51:42.216Z,7.80
2024-01-14T14:54:11.511Z,7.80
2024-01-14T14:56:40.330Z,7.80
2024-01-14T14:59:08.038Z,7.80
2024-01-14T15:01:42.554Z,7.80
2024-01-14T15:04:15.286Z,7.80
2024-01-14T15:06:45.437Z,7.80
2024-01-14T15:09:15.990Z,7.80
2024-01-14T15:11:43.942Z,7.70
2024-01-14T15:14:12.027Z,7.70
2024-01-14T15:16:42.063Z,7.80
2024-01-14T15:19:09.613Z,7.70
2024-01-14T15:21:37.888Z,7.70
2024-01-14T15:24:05.358Z,7.70
2024-01-14T15:26:34.530Z,7.70
2024-01-14T15:29:01.996Z,7.70
2024-01-14T15:31:30.740Z,7.70
2024-01-14T15:33:59.269Z,7.70
2024-01-14T15:36:29.856Z,7.70
2024-01-14T15:38:59.420Z,7.80
2024-01-14T15:41:27.928Z,7.80
2024-01-14T15:43:55.471Z,7.80
2024-01-14T15:46:22.715Z,7.80
2024-01-14T15:48:51.820Z,7.80
2024-01-14T15:51:19.348Z,7.80
2024-01-14T15:53:46.715Z,7.70
2024-01-14T15:56:14.827Z,7.70
2024-01-14T15:58:42.928Z,7.70
2024-01-14T16:01:13.311Z,7.60
2024-01-14T16:03:44.613Z,7.60
2024-01-14T16:06:14.242Z,7.60
2024-01-14T16:08:43.663Z,7.60
2024-01-14T16:11:11.033Z,7.50
2024-01-14T16:13:38.457Z,7.50
2024-01-14T16:16:07.516Z,7.40
2024-01-14T16:18:36.109Z,7.40
2024-01-14T16:21:07.870Z,7.40
2024-01-14T16:23:38.926Z,7.40
2024-01-14T16:26:08.239Z,7.30
2024-01-14T16:28:35.545Z,7.20
2024-01-14T16:31:11.145Z,7.20
2024-01-14T16:33:44.199Z,7.10
2024-01-14T16:36:14.754Z,7.10
2024-01-14T16:38:42.396Z,7.00
2024-01-14T16:41:10.038Z,7.00
2024-01-14T16:43:37.810Z,7.00
2024-01-14T16:46:06.160Z,7.00
2024-01-14T16:48:34.522Z,6.90
2024-01-14T16:51:09.775Z,6.90
2024-01-14T16:53:41.173Z,6.90
2024-01-14T16:56:12.553Z,6.90
2024-01-14T16:58:40.753Z,6.90
2024-01-14T17:01:15.467Z,6.90
2024-01-14T17:03:47.531Z,6.80
2024-01-14T17:06:16.903Z,6.90
2024-01-14T17:08:47.430Z,7.00
2024-01-14T17:11:16.383Z,6.90
2024-01-14T17:13:44.104Z,6.80
2024-01-14T17:16:14.453Z,6.80
2024-01-14T17:18:42.551Z,6.80
2024-01-14T17:21:10.088Z,6.80
2024-01-14T17:23:37.646Z,6.70
2024-01-14T17:26:08.293Z,6.70
2024-01-14T17:28:41.101Z,6.60
2024-01-14T17:31:11.800Z,6.70
2024-01-14T17:33:40.569Z,6.60
2024-01-14T17:36:11.725Z,6.60
2024-01-14T17:38:39.970Z,6.60
2024-01-14T17:41:08.923Z,6.70
2024-01-14T17:43:36.704Z,6.60
2024-01-14T17:46:08.255Z,6.60
2024-01-14T17:48:39.644Z,6.60
2024-01-14T17:51:09.330Z,6.60
2024-01-14T17:53:38.179Z,6.60
2024-01-14T17:56:05.934Z,6.60
2024-01-14T17:58:33.204Z,6.50
2024-01-14T18:01:03.423Z,6.50
2024-01-14T18:03:31.123Z,6.50
2024-01-14T18:05:59.655Z,6.50
2024-01-14T18:08:26.897Z,6.50
2024-01-14T18:10:54.074Z,6.40
2024-01-14T18:13:21.927Z,6.40
2024-01-14T18:15:50.201Z,6.40
2024-01-14T18:18:18.355Z,6.40
2024-01-14T18:20:45.829Z,6.40
2024-01-14T18:23:14.427Z,6.40
2024-01-14T18:25:44.135Z,6.40
2024-01-14T18:28:14.269Z,6.30
2024-01-14T18:30:42.212Z,6.20
2024-01-14T18:33:12.738Z,6.20
2024-01-14T18:35:43.976Z,6.20
2024-01-14T18:38:13.386Z,6.20
2024-01-14T18:40:41.073Z,6.20
2024-01-14T18:43:10.070Z,6.10
2024-01-14T18:45:38.434Z,6.10
2024-01-14T18:48:07.118Z,6.10
2024-01-14T18:50:35.703Z,6.10
2024-01-14T18:53:05.245Z,6.00
2024-01-14T18:55:32.627Z,6.00
2024-01-14T18:57:59.889Z,6.00
2024-01-14T19:00:27.125Z,6.10
2024-01-14T19:02:54.420Z,6.00
2024-01-14T19:05:21.754Z,6.00
2024-01-14T19:07:49.305Z,6.00
2024-01-14T19:10:16.573Z,6.00
2024-01-14T19:12:44.119Z,5.90
2024-01-14T19:15:11.492Z,5.90
2024-01-14T19:17:38.758Z,5.90
2024-01-14T19:20:06.900Z,5.90
2024-01-14T19:22:35.535Z,5.80
2024-01-14T19:25:04.144Z,5.80
2024-01-14T19:27:32.415Z,5.70
2024-01-14T19:29:59.654Z,5.70
2024-01-14T19:32:28.621Z,5.60
2024-01-14T19:34:56.218Z,5.60
2024-01-14T19:37:23.549Z,5.60
2024-01-14T19:39:52.247Z,5.60
2024-01-14T19:42:20.103Z,5.60
2024-01-14T19:44:47.263Z,5.50
2024-01-14T19:47:15.693Z,5.40
2024-01-14T19:49:42.982Z,5.40
2024-01-14T19:52:10.352Z,5.40
2024-01-14T19:54:37.879Z,5.30
2024-01-14T19:57:06.063Z,5.30
2024-01-14T19:59:33.476Z,5.30
2024-01-14T20:02:01.384Z,5.20
2024-01-14T20:04:28.732Z,5.20
2024-01-14T20:06:56.362Z,5.10
2024-01-14T20:09:25.229Z,5.00
2024-01-14T20:11:55.729Z,4.90
2024-01-14T20:14:23.522Z,4.90
2024-01-14T20:16:52.514Z,4.90
2024-01-14T20:19:21.111Z,4.90
2024-01-14T20:21:49.726Z,4.80
2024-01-14T20:24:17.499Z,4.80
2024-01-14T20:26:46.842Z,4.80
2024-01-14T20:29:14.216Z,4.90
2024-01-14T20:31:41.541Z,4.90
2024-01-14T20:34:08.974Z,4.90
2024-01-14T20:36:36.316Z,4.80
2024-01-14T20:39:04.021Z,4.80
2024-01-14T20:41:31.352Z,4.80
2024-01-14T20:43:58.680Z,4.70
2024-01-14T20:46:25.898Z,4.70
2024-01-14T20:48:53.906Z,4.70
2024-01-14T20:51:21.523Z,4.60
2024-01-14T20:53:48.827Z,4.70
2024-01-14T20:56:16.370Z,4.70
2024-01-14T20:58:43.636Z,4.70
2024-01-14T21:01:10.735Z,4.80
2024-01-14T21:03:39.335Z,4.80
2024-01-14T21:06:06.979Z,4.80
2024-01-14T21:08:34.532Z,4.90
2024-01-14T21:11:01.729Z,4.90
2024-01-14T21:13:29.010Z,4.90
2024-01-14T21:15:56.322Z,4.90
2024-01-14T21:18:25.409Z,4.90
2024-01-14T21:20:53.254Z,4.90
2024-01-14T21:23:20.894Z,4.90
2024-01-14T21:25:48.864Z,4.90
2024-01-14T21:28:16.210Z,4.90
2024-01-14T21:30:43.598Z,4.90
2024-01-14T21:33:11.074Z,4.90
2024-01-14T21:35:38.550Z,4.90
2024-01-14T21:38:05.738Z,4.80
2024-01-14T21:40:33.080Z,4.70
2024-01-14T21:43:00.292Z,4.50
2024-01-14T21:45:28.864Z,4.40
2024-01-14T21:47:56.296Z,4.40
2024-01-14T21:50:24.145Z,4.30
2024-01-14T21:52:51.596Z,4.20
2024-01-14T21:55:19.065Z,4.20
2024-01-14T21:57:46.922Z,4.20
2024-01-14T22:00:14.621Z,4.20
2024-01-14T22:02:41.865Z,4.20
2024-01-14T22:05:09.309Z,4.20
2024-01-14T22:07:36.473Z,4.20
2024-01-14T22:10:04.538Z,4.30
2024-01-14T22:12:31.865Z,4.30
2024-01-14T22:14:59.395Z,4.30
2024-01-14T22:17:26.572Z,4.30
2024-01-14T22:19:54.002Z,4.30
2024-01-14T22:22:21.244Z,4.40
2024-01-14T22:24:48.605Z,4.40
2024-01-14T22:27:18.742Z,4.40
2024-01-14T22:29:46.015Z,4.50
2024-01-14T22:32:13.136Z,4.50
2024-01-14T22:34:40.637Z,4.50
2024-01-14T22:37:07.958Z,4.60
2024-01-14T22:39:35.243Z,4.60
2024-01-14T22:42:02.523Z,4.60
2024-01-14T22:44:29.803Z,4.70
2024-01-14T22:46:56.988Z,4.70
2024-01-14T22:49:24.335Z,4.70
2024-01-14T22:51:51.716Z,4.70
2024-01-14T22:54:19.133Z,4.70
2024-01-14T22:56:46.675Z,4.70
2024-01-14T22:59:13.893Z,4.70
2024-01-14T23:01:41.319Z,4.70
2024-01-14T23:04:09.111Z,4.70
2024-01-14T23:06:36.559Z,4.80
2024-01-14T23:09:04.103Z,4.80
2024-01-14T23:11:31.585Z,4.90
2024-01-14T23:13:58.797Z,4.80
2024-01-14T23:16:25.968Z,4.90
2024-01-14T23:18:53.370Z,4.90
2024-01-14T23:21:20.725Z,4.90
2024-01-14T23:23:48.806Z,4.90
2024-01-14T23:26:16.060Z,4.90
2024-01-14T23:28:43.367Z,4.90
2024-01-14T23:31:10.606Z,4.90
2024-01-14T23:33:38.375Z,4.90
2024-01-14T23:36:06.038Z,4.90
2024-01-14T23:38:33.361Z,5.00
2024-01-14T23:41:00.691Z,5.00
2024-01-14T23:43:28.298Z,4.90
2024-01-14T23:45:56.110Z,4.90
2024-01-14T23:48:23.933Z,4.90
2024-01-14T23:50:51.272Z,4.90
2024-01-14T23:53:18.610Z,4.90
2024-01-14T23:56:11.892Z,4.90
2024-01-14T23:58:39.262Z,5.00
